Latest Weather Observations for Rolleston Airport

IDQ60801

Issued at 5:02 pm EST Friday 31 July 2015 (issued every 30 minutes, with the page automatically refreshed every 10 minutes)

About weather observations | Map of weather stations | Latest weather observations for QLD | Other Formats
Station Details ID: 035129 Name: ROLLESTON AIRPORT Lat: -24.46 Lon: 148.63 Height: 219.45 m
Data from the previous 72 hours. | See also: Recent months at Rolleston Airport
Date/Time
EST
Temp
°C
App
Temp
°C
Dew
Point
Rel
Hum
%
Delta-T
°C
Wind Press
QNH
hPa
Press
MSL
hPa
Rain
since 9 am
mm
Dir
 
Spd
km/h
Gust
km/h
Spd
kts
Gust
kts
31/05:00pm 23.5 21.6 4.9 30 9.3 SE 4 7 2 4 1020.3 1020.2 0.0
31/04:30pm 24.0 21.8 5.4 30 9.5 SSE 6 11 3 6 1020.1 1020.0 0.0
31/04:00pm 24.5 22.4 5.8 30 9.6 S 6 15 3 8 1020.2 1020.1 0.0
31/03:30pm 24.1 21.6 6.4 32 9.2 SSE 9 17 5 9 1020.3 1020.2 0.0
31/03:00pm 24.7 22.5 6.4 31 9.5 WSW 7 11 4 6 1020.7 1020.6 0.0
31/02:30pm 24.1 22.1 6.4 32 9.2 SSW 6 15 3 8 1021.2 1021.1 0.0
31/02:00pm 23.9 21.7 6.2 32 9.1 NW 7 13 4 7 1021.5 1021.3 0.0
31/01:30pm 23.6 21.4 6.4 33 8.9 SSE 7 13 4 7 1022.2 1022.0 0.0
31/01:00pm 22.9 21.5 7.1 36 8.2 SW 4 9 2 5 1022.7 1022.5 0.0
31/12:30pm 23.4 21.8 8.7 39 7.9 NNW 7 15 4 8 1023.2 1023.1 0.0
31/12:00pm 22.4 20.9 9.2 43 7.1 SSW 7 11 4 6 1023.8 1023.7 0.0
31/11:30am 21.4 19.9 9.3 46 6.5 NNW 7 17 4 9 1024.4 1024.3 0.0
31/11:00am 20.8 19.6 9.4 48 6.1 NNW 6 11 3 6 1024.7 1024.6 0.0
31/10:30am 19.6 18.3 10.0 54 5.2 NNE 7 11 4 6 1025.1 1025.0 0.0
31/10:00am 18.5 17.8 10.1 58 4.5 W 4 7 2 4 1025.4 1025.3 0.0
31/09:30am 16.7 16.1 8.9 60 4.1 SSW 2 4 1 2 1025.5 1025.4 0.0
31/09:00am 14.3 13.0 5.9 57 4.0 SSW 2 4 1 2 1025.6 1025.5 0.0
31/08:30am 12.0 10.2 5.2 63 3.2 SSE 4 6 2 3 1025.3 1025.2 0.0
31/08:00am 9.1 6.8 4.7 74 2.0 SSE 6 7 3 4 1025.2 1025.1 0.0
31/07:30am 7.0 5.7 4.1 82 1.3 CALM 0 0 0 0 1024.9 1024.8 0.0
31/07:00am 5.3 3.5 3.5 88 0.8 SSW 2 2 1 1 1024.4 1024.3 0.0
31/06:30am 4.6 2.2 2.3 85 0.9 SSW 4 6 2 3 1024.1 1024.0 0.0
31/06:00am 4.5 2.1 2.0 84 1.0 SSW 4 6 2 3 1023.5 1023.4 0.0
31/05:30am 5.0 3.4 2.5 84 1.0 CALM 0 2 0 1 1023.0 1022.8 0.0
31/05:00am 6.1 3.9 3.6 84 1.1 SSE 4 4 2 2 1022.9 1022.7 0.0
31/04:30am 6.0 4.5 3.2 82 1.2 CALM 0 0 0 0 1022.8 1022.6 0.0
31/04:00am 6.5 5.1 3.3 80 1.4 CALM 0 0 0 0 1023.0 1022.8 0.0
31/03:30am 7.5 6.3 4.5 81 1.3 CALM 0 0 0 0 1023.0 1022.8 0.0
31/03:00am 6.9 5.2 3.9 81 1.3 SSE 2 4 1 2 1023.1 1023.0 0.0
31/02:30am 6.9 4.7 3.3 78 1.5 SSW 4 6 2 3 1023.2 1023.1 0.0
31/02:00am 8.0 6.2 3.7 74 1.9 ENE 2 6 1 3 1023.1 1023.0 0.0
31/01:30am 8.5 7.4 4.9 78 1.6 CALM 0 2 0 1 1023.2 1023.1 0.0
31/01:00am 8.0 6.2 3.7 74 1.9 NW 2 2 1 1 1023.5 1023.4 0.0
31/12:30am 10.9 8.6 4.8 66 2.8 S 6 6 3 3 1023.6 1023.5 0.0
31/12:00am 11.5 9.7 5.2 65 2.9 SSW 4 6 2 3 1024.0 1023.9 0.0
 
Date/Time
EST
Temp
°C
App
Temp
°C
Dew
Point
Rel
Hum
%
Delta-T
°C
Wind Press
QNH
hPa
Press
MSL
hPa
Rain
since 9 am
mm
Dir
 
Spd
km/h
Gust
km/h
Spd
kts
Gust
kts
30/11:30pm 11.8 10.8 5.7 66 2.9 CALM 0 2 0 1 1024.1 1024.0 0.0
30/11:00pm 10.9 9.4 5.2 68 2.6 NNW 2 4 1 2 1024.2 1024.1 0.0
30/10:30pm 11.6 10.2 5.3 65 2.9 SW 2 6 1 3 1024.3 1024.2 0.0
30/10:00pm 12.0 10.9 5.2 63 3.2 CALM 0 0 0 0 1024.4 1024.3 0.0
30/09:30pm 12.6 11.4 4.6 58 3.7 CALM 0 0 0 0 1024.4 1024.3 0.0
30/09:00pm 14.4 12.4 4.4 51 4.6 E 4 9 2 5 1024.1 1024.0 0.0
30/08:30pm 16.0 12.8 5.0 48 5.3 E 11 13 6 7 1023.9 1023.8 0.0
30/08:00pm 16.8 13.7 5.4 47 5.5 ESE 11 13 6 7 1023.7 1023.6 0.0
30/07:30pm 16.4 14.1 5.7 49 5.2 SSE 7 9 4 5 1023.7 1023.6 0.0
30/07:00pm 16.4 14.3 5.7 49 5.2 SSE 6 7 3 4 1023.5 1023.4 0.0
30/06:30pm 18.8 17.6 6.6 45 6.2 S 2 2 1 1 1023.3 1023.2 0.0
30/06:00pm 19.4 17.7 5.8 41 6.8 S 4 6 2 3 1023.1 1023.0 0.0
30/05:30pm 21.3 20.1 6.4 38 7.6 SW 2 4 1 2 1022.9 1022.7 0.0
30/05:00pm 22.6 20.6 6.4 35 8.3 SW 6 9 3 5 1022.9 1022.7 0.0
30/04:30pm 23.7 22.4 6.0 32 9.1 NW 2 6 1 3 1022.5 1022.3 0.0
30/04:00pm 24.0 21.8 5.4 30 9.5 N 6 11 3 6 1022.3 1022.1 0.0
30/03:30pm 23.6 20.9 5.5 31 9.2 NNE 9 15 5 8 1022.4 1022.2 0.0
30/03:00pm 23.7 21.6 6.0 32 9.1 NNE 6 13 3 7 1022.7 1022.5 0.0
30/02:30pm 23.3 20.6 5.7 32 9.0 ENE 9 17 5 9 1023.2 1023.1 0.0
30/02:00pm 23.4 21.4 6.2 33 8.8 NE 6 17 3 9 1023.4 1023.3 0.0
30/01:30pm 22.7 19.7 6.0 34 8.5 E 11 20 6 11 1023.8 1023.7 0.0
30/01:00pm 22.8 19.8 6.1 34 8.5 ENE 11 19 6 10 1024.4 1024.3 0.0
30/12:30pm 22.1 19.4 5.5 34 8.4 NE 9 20 5 11 1025.2 1025.1 0.0
30/12:00pm 21.4 18.2 5.3 35 8.0 ENE 11 19 6 10 1025.6 1025.5 0.0
30/11:30am 20.9 18.4 4.5 34 8.1 E 7 19 4 10 1026.0 1025.9 0.0
30/11:00am 20.7 17.4 4.3 34 8.0 E 11 20 6 11 1026.5 1026.3 0.0
30/10:30am 19.9 16.5 4.0 35 7.7 E 11 20 6 11 1026.8 1026.6 0.0
30/10:00am 18.1 16.1 6.9 48 5.6 SE 7 13 4 7 1027.3 1027.2 0.0
30/09:30am 15.2 13.0 6.2 55 4.4 SE 7 11 4 6 1027.7 1027.6 0.0
30/09:00am 13.2 11.2 6.1 62 3.4 S 6 9 3 5 1027.7 1027.6 0.0
30/08:30am 10.4 8.3 3.9 64 2.9 SSW 4 6 2 3 1027.5 1027.4 0.0
30/08:00am 8.4 5.8 3.3 70 2.2 SSE 6 7 3 4 1027.2 1027.1 0.0
30/07:30am 5.9 3.5 2.4 78 1.4 SSE 4 6 2 3 1026.9 1026.7 0.0
30/07:00am 4.3 1.8 1.7 83 1.0 SSE 4 6 2 3 1026.9 1026.7 0.0
30/06:30am 4.0 1.0 1.0 81 1.2 SSW 6 6 3 3 1026.4 1026.2 0.0
30/06:00am 4.7 2.2 1.6 80 1.2 SSE 4 6 2 3 1026.4 1026.2 0.0
30/05:30am 5.3 2.5 2.1 80 1.3 SSE 6 6 3 3 1026.4 1026.2 0.0
30/05:00am 5.3 2.4 1.6 77 1.5 SSE 6 6 3 3 1026.2 1026.0 0.0
30/04:30am 5.8 3.4 2.3 78 1.4 S 4 6 2 3 1026.3 1026.1 0.0
30/04:00am 5.8 3.4 1.9 76 1.6 S 4 6 2 3 1026.4 1026.2 0.0
30/03:30am 5.8 3.0 1.9 76 1.6 SSW 6 7 3 4 1026.5 1026.3 0.0
30/03:00am 6.5 3.7 2.0 73 1.8 S 6 7 3 4 1026.7 1026.5 0.0
30/02:30am 6.5 4.0 1.8 72 1.9 SSE 4 6 2 3 1026.4 1026.2 0.0
30/02:00am 7.3 4.9 2.0 69 2.2 SSE 4 6 2 3 1026.7 1026.5 0.0
30/01:30am 7.3 4.5 2.0 69 2.2 SSE 6 7 3 4 1027.2 1027.1 0.0
30/01:00am 8.4 5.8 3.1 69 2.3 SSE 6 6 3 3 1027.3 1027.2 0.0
30/12:30am 8.3 6.0 2.5 67 2.5 SSW 4 6 2 3 1027.7 1027.6 0.0
30/12:00am 8.8 6.9 2.6 65 2.6 N 2 9 1 5 1027.7 1027.6 0.0
 
Date/Time
EST
Temp
°C
App
Temp
°C
Dew
Point
Rel
Hum
%
Delta-T
°C
Wind Press
QNH
hPa
Press
MSL
hPa
Rain
since 9 am
mm
Dir
 
Spd
km/h
Gust
km/h
Spd
kts
Gust
kts
29/11:30pm 9.6 6.3 2.5 61 3.1 SSE 9 9 5 5 1027.3 1027.2 0.0
29/11:00pm 10.6 6.7 3.4 61 3.2 SE 13 15 7 8 1027.5 1027.4 0.0
29/10:30pm 10.0 6.4 2.8 61 3.1 SE 11 11 6 6 1027.5 1027.4 0.0
29/10:00pm 10.2 7.1 3.5 63 2.9 SE 9 11 5 6 1027.5 1027.4 0.0
29/09:30pm 10.4 7.7 2.7 59 3.3 S 6 7 3 4 1027.6 1027.5 0.0
29/09:00pm 10.4 7.7 2.7 59 3.3 S 6 7 3 4 1027.4 1027.3 0.0
29/08:30pm 12.2 10.7 3.2 54 4.0 CALM 0 0 0 0 1027.1 1027.0 0.0
29/08:00pm 13.1 11.2 2.6 49 4.6 SE 2 2 1 1 1027.1 1027.0 0.0
29/07:30pm 13.9 11.2 2.8 47 5.0 SE 6 6 3 3 1026.9 1026.7 0.0
29/07:00pm 15.2 13.3 2.7 43 5.6 SE 2 4 1 2 1026.7 1026.5 0.0
29/06:30pm 17.3 14.5 3.2 39 6.6 ESE 7 9 4 5 1026.6 1026.4 0.0
29/06:00pm 18.0 14.7 2.7 36 7.1 E 9 13 5 7 1026.4 1026.2 0.0
29/05:30pm 19.7 16.0 2.1 31 8.2 E 11 15 6 8 1026.2 1026.0 0.0
29/05:00pm 21.0 17.6 1.8 28 8.9 E 9 15 5 8 1025.7 1025.6 0.0
29/04:30pm 21.9 18.1 1.6 26 9.5 E 11 19 6 10 1025.7 1025.6 0.0
29/04:00pm 22.0 18.0 0.5 24 9.8 ESE 11 22 6 12 1025.3 1025.2 0.0
29/03:30pm 22.3 18.0 0.8 24 9.9 E 13 22 7 12 1025.3 1025.2 0.0
29/03:00pm 22.0 17.6 0.5 24 9.8 ESE 13 20 7 11 1025.6 1025.5 0.0
29/02:30pm 21.8 16.7 0.9 25 9.6 ESE 17 28 9 15 1026.0 1025.9 0.0
29/02:00pm 21.6 17.3 1.3 26 9.4 SE 13 20 7 11 1026.5 1026.3 0.0
29/01:30pm 21.3 17.5 1.6 27 9.2 ESE 11 24 6 13 1026.8 1026.6 0.0
29/01:00pm 20.5 16.2 0.9 27 8.9 SE 13 26 7 14 1027.4 1027.3 0.0
29/12:30pm 20.7 16.3 2.5 30 8.6 E 15 28 8 15 1028.1 1028.0 0.0
29/12:00pm 19.9 15.3 3.6 34 7.8 ESE 17 28 9 15 1028.8 1028.7 0.0
29/11:30am 19.6 14.6 3.7 35 7.6 E 19 26 10 14 1029.5 1029.4 0.0
29/11:00am 18.8 14.0 4.6 39 6.8 ESE 19 28 10 15 1030.2 1030.1 0.0
29/10:30am 16.5 13.5 4.2 44 5.8 SE 9 20 5 11 1030.5 1030.4 0.0
29/10:00am 15.0 11.1 3.5 46 5.3 S 13 17 7 9 1031.2 1031.1 0.0
29/09:30am 14.5 10.9 2.7 45 5.3 S 11 19 6 10 1031.3 1031.2 0.0
29/09:00am 12.6 8.7 1.3 46 4.8 S 11 19 6 10 1031.1 1031.0 0.0
29/08:30am 10.8 6.8 0.2 48 4.4 SSE 11 17 6 9 1031.0 1030.9 0.0
29/08:00am 8.5 5.1 -0.3 54 3.5 SSE 7 9 4 5 1031.1 1031.0 0.0
29/07:30am 6.8 3.5 -0.2 61 2.7 SE 7 9 4 5 1030.7 1030.6 0.0
29/07:00am 4.6 0.8 -1.0 67 2.1 SSE 9 9 5 5 1030.7 1030.6 0.0
29/06:30am 5.0 1.5 -1.4 63 2.4 SSE 7 9 4 5 1030.5 1030.4 0.0
29/06:00am 4.0 0.6 -2.0 65 2.2 SSE 6 9 3 5 1030.4 1030.3 0.0
29/05:30am 3.9 0.5 -2.1 65 2.2 S 6 9 3 5 1029.9 1029.8 0.0
29/05:00am 3.7 0.2 -2.9 62 2.3 S 6 7 3 4 1029.5 1029.4 0.0
29/04:30am 4.3 0.3 -2.3 62 2.4 SSE 9 11 5 6 1029.3 1029.2 0.0
29/04:00am 4.6 1.0 -2.0 62 2.4 SE 7 9 4 5 1029.2 1029.1 0.0
29/03:30am 4.9 1.3 -2.2 60 2.6 SSE 7 9 4 5 1029.5 1029.4 0.0
29/03:00am 5.5 1.9 -2.1 58 2.8 SSE 7 9 4 5 1029.6 1029.5 0.0
29/02:30am 5.5 2.1 -2.3 57 2.9 SE 6 7 3 4 1029.7 1029.6 0.0
29/02:00am 6.0 2.4 -2.1 56 3.0 SE 7 9 4 5 1029.9 1029.8 0.0
29/01:30am 6.1 2.1 -2.2 55 3.1 SSE 9 9 5 5 1029.8 1029.7 0.0
29/01:00am 6.7 3.1 -2.2 53 3.3 SSE 7 9 4 5 1029.6 1029.5 0.0
29/12:30am 7.3 3.6 -2.7 49 3.7 S 7 9 4 5 1029.6 1029.5 0.0
29/12:00am 8.3 4.7 -2.3 47 4.0 S 7 11 4 6 1029.6 1029.5 0.0
 
Date/Time
EST
Temp
°C
App
Temp
°C
Dew
Point
Rel
Hum
%
Delta-T
°C
Wind Press
QNH
hPa
Press
MSL
hPa
Rain
since 9 am
mm
Dir
 
Spd
km/h
Gust
km/h
Spd
kts
Gust
kts
28/11:30pm 8.4 4.3 -2.8 45 4.2 SSE 9 13 5 7 1029.6 1029.5 0.0
28/11:00pm 9.2 5.6 -2.4 44 4.4 S 7 11 4 6 1029.7 1029.6 0.0
28/10:30pm 9.4 5.8 -1.9 45 4.4 S 7 11 4 6 1029.7 1029.6 0.0
28/10:00pm 9.3 5.8 -1.7 46 4.2 S 7 9 4 5 1029.7 1029.6 0.0
28/09:30pm 9.4 5.8 -1.9 45 4.4 S 7 11 4 6 1029.8 1029.7 0.0
28/09:00pm 8.9 5.4 -2.7 44 4.3 S 6 9 3 5 1029.7 1029.6 0.0
28/08:30pm 9.0 5.3 -2.9 43 4.5 SSE 7 7 4 4 1029.7 1029.6 0.0
28/08:00pm 11.4 6.9 -3.5 35 5.6 SSE 11 17 6 9 1029.5 1029.4 0.0
28/07:30pm 13.4 8.9 -2.9 32 6.4 SSE 11 15 6 8 1029.0 1028.9 0.0
28/07:00pm 14.2 9.7 -3.1 30 6.8 SSE 11 17 6 9 1028.5 1028.4 0.0
28/06:30pm 15.1 10.2 -3.7 27 7.4 SSE 13 17 7 9 1028.1 1028.0 0.0
28/06:00pm 15.9 11.3 -4.1 25 7.8 S 11 17 6 9 1027.7 1027.6 0.0
28/05:30pm 17.5 12.6 -3.8 23 8.6 S 13 20 7 11 1027.4 1027.3 0.0

Other Formats:

Comma delimited format used in spreadsheet applications
http://www.bom.gov.au/fwo/IDQ60801/IDQ60801.94396.axf

JavaScript Object Notation format (JSON) in row-major order
http://www.bom.gov.au/fwo/IDQ60801/IDQ60801.94396.json